Time;durP1;ratioP1;P1;durP2;ratioP2;P2;SDS_P1;SDS_P2;PMS_P1;PMS_P2;Temp;Humidity;BMP_temperature;BMP_pressure;BME280_temperature;BME280_humidity;BME280_pressure;Samples;Min_cycle;Max_cycle;Signal;HPM_P1;HPM_P2
2022/12/22 03:25:51;;;;;;;0.30;0.30;;;8.90;99.90;;;;;;5074277;28;20669;-71
2022/12/22 03:28:17;;;;;;;1.05;0.95;;;8.90;99.90;;;;;;5074405;28;20177;-70
2022/12/22 03:30:43;;;;;;;0.30;0.30;;;8.90;99.90;;;;;;5074223;28;20247;-70
2022/12/22 03:33:08;;;;;;;0.40;0.40;;;8.90;99.90;;;;;;5074349;28;20205;-72
2022/12/22 03:35:34;;;;;;;0.30;0.30;;;8.90;99.90;;;;;;5073844;28;20654;-70
2022/12/22 03:38:02;;;;;;;1.00;0.93;;;9.00;99.90;;;;;;5074366;28;20184;-71
2022/12/22 03:40:31;;;;;;;0.30;0.30;;;9.00;99.90;;;;;;5073431;28;20284;-70
2022/12/22 03:48:24;;;;;;;0.80;0.80;;;9.00;99.90;;;;;;5074248;28;20212;-71
2022/12/22 03:50:50;;;;;;;1.63;0.97;;;9.00;99.90;;;;;;5073841;28;20650;-68
2022/12/22 03:53:16;;;;;;;0.40;0.40;;;9.00;99.90;;;;;;5073927;28;20193;-71
2022/12/22 03:55:41;;;;;;;0.97;0.97;;;9.10;99.90;;;;;;5073900;28;20190;-70
2022/12/22 03:58:07;;;;;;;0.40;0.40;;;9.20;99.90;;;;;;5073989;28;20170;-71
2022/12/22 04:00:32;;;;;;;0.40;0.40;;;9.10;99.90;;;;;;5073699;28;20185;-71
2022/12/22 04:02:58;;;;;;;0.30;0.30;;;9.10;99.90;;;;;;5073768;28;20295;-69
2022/12/22 04:05:24;;;;;;;0.50;0.50;;;9.10;99.90;;;;;;5073711;28;20389;-69
2022/12/22 04:07:50;;;;;;;0.30;0.30;;;9.10;99.90;;;;;;5073739;28;20178;-70
2022/12/22 04:13:00;;;;;;;0.73;0.60;;;9.10;99.90;;;;;;5073777;28;20606;-71
2022/12/22 04:15:28;;;;;;;0.30;0.30;;;9.00;99.90;;;;;;5073473;28;20253;-69
2022/12/22 04:17:54;;;;;;;0.30;0.30;;;9.00;99.90;;;;;;5073841;28;20572;-71
2022/12/22 04:20:22;;;;;;;0.30;0.30;;;9.00;99.90;;;;;;5073524;28;20262;-68
2022/12/22 04:22:48;;;;;;;0.40;0.40;;;9.00;99.90;;;;;;5073779;28;20412;-71
2022/12/22 04:25:14;;;;;;;0.30;0.30;;;9.00;99.90;;;;;;5073414;28;20680;-70
2022/12/22 04:27:40;;;;;;;1.35;0.95;;;9.00;99.90;;;;;;5073628;28;20404;-69
2022/12/22 04:30:07;;;;;;;0.80;0.80;;;9.10;99.90;;;;;;5073490;28;20197;-68
2022/12/22 04:32:33;;;;;;;0.30;0.30;;;9.00;99.90;;;;;;5073356;28;20509;-71
2022/12/22 04:34:58;;;;;;;0.40;0.40;;;9.00;99.90;;;;;;5073265;28;20166;-71
2022/12/22 04:37:24;;;;;;;0.30;0.30;;;9.00;99.90;;;;;;5073490;28;20653;-71
2022/12/22 04:39:49;;;;;;;0.40;0.40;;;9.00;99.90;;;;;;5073362;28;20185;-70
2022/12/22 04:42:15;;;;;;;0.30;0.30;;;9.10;99.90;;;;;;5073292;28;20178;-71
2022/12/22 04:44:41;;;;;;;2.30;1.90;;;9.10;99.90;;;;;;5073617;28;20553;-70
2022/12/22 04:47:06;;;;;;;0.30;0.30;;;9.10;99.90;;;;;;5073377;28;20165;-71
2022/12/22 04:49:32;;;;;;;0.60;0.50;;;9.00;99.90;;;;;;5073320;28;20193;-70
2022/12/22 04:51:57;;;;;;;1.77;0.53;;;9.00;99.90;;;;;;5076497;28;20229;-70
2022/12/22 04:54:23;;;;;;;0.73;0.73;;;9.10;99.90;;;;;;5077367;28;20686;-69
2022/12/22 04:56:49;;;;;;;3.13;0.87;;;9.10;99.90;;;;;;5077425;28;20161;-71
2022/12/22 04:59:15;;;;;;;0.40;0.40;;;9.10;99.90;;;;;;5077594;28;20196;-71
2022/12/22 05:01:41;;;;;;;0.40;0.37;;;9.10;99.90;;;;;;5077274;28;20179;-71
2022/12/22 05:04:07;;;;;;;0.60;0.60;;;9.10;99.90;;;;;;5077022;28;20201;-68
2022/12/22 05:06:32;;;;;;;0.40;0.40;;;8.90;99.90;;;;;;5077191;28;20414;-71
2022/12/22 05:08:58;;;;;;;2.77;1.33;;;9.00;99.90;;;;;;5077027;28;20193;-71
2022/12/22 05:11:23;;;;;;;0.30;0.30;;;9.00;99.90;;;;;;5076927;28;20193;-68
2022/12/22 05:13:49;;;;;;;0.30;0.30;;;8.90;99.90;;;;;;5077192;28;20173;-69
2022/12/22 05:16:16;;;;;;;0.30;0.30;;;9.00;99.90;;;;;;5075547;28;20169;-72
2022/12/22 05:18:44;;;;;;;0.45;0.45;;;9.00;99.90;;;;;;5076865;28;20631;-68
2022/12/22 05:21:21;;;;;;;0.40;0.40;;;9.00;99.90;;;;;;5076865;28;20185;-71
2022/12/22 05:23:47;;;;;;;0.30;0.30;;;9.00;99.90;;;;;;5076937;28;20680;-69
2022/12/22 05:26:14;;;;;;;0.85;0.85;;;8.90;99.90;;;;;;5076489;28;20209;-72
2022/12/22 05:28:41;;;;;;;0.30;0.30;;;8.80;99.90;;;;;;5077016;28;20230;-71
2022/12/22 05:31:09;;;;;;;0.40;0.40;;;8.80;99.90;;;;;;5076694;28;20533;-69
2022/12/22 05:33:34;;;;;;;0.30;0.30;;;8.70;99.90;;;;;;5076718;28;20229;-69
2022/12/22 05:36:00;;;;;;;0.70;0.60;;;8.60;99.90;;;;;;5076393;28;20262;-69
2022/12/22 05:38:26;;;;;;;0.30;0.30;;;8.60;99.90;;;;;;5076637;28;20168;-72
2022/12/22 05:40:52;;;;;;;0.30;0.30;;;8.60;99.90;;;;;;5076373;28;20607;-69
2022/12/22 05:43:18;;;;;;;0.30;0.30;;;8.50;99.90;;;;;;5076422;28;20176;-70
2022/12/22 05:45:44;;;;;;;2.40;1.53;;;8.50;99.90;;;;;;5076276;28;20652;-70
2022/12/22 05:48:10;;;;;;;4.43;1.42;;;8.50;99.90;;;;;;5076408;28;20625;-71
2022/12/22 05:50:36;;;;;;;0.30;0.30;;;8.40;99.90;;;;;;5076239;28;20284;-70
2022/12/22 05:53:02;;;;;;;9.23;0.70;;;8.50;99.90;;;;;;5076284;28;20287;-71
2022/12/22 05:55:28;;;;;;;0.30;0.30;;;8.60;99.90;;;;;;5074753;28;20447;-69
2022/12/22 05:57:54;;;;;;;0.30;0.30;;;8.50;99.90;;;;;;5076349;28;20404;-70
2022/12/22 06:00:20;;;;;;;0.40;0.40;;;8.70;99.90;;;;;;5076128;28;20559;-69
2022/12/22 06:02:46;;;;;;;0.30;0.30;;;8.60;99.90;;;;;;5075513;28;20170;-70
2022/12/22 06:05:14;;;;;;;0.30;0.30;;;8.70;99.90;;;;;;5075908;28;20635;-69
2022/12/22 06:07:40;;;;;;;0.40;0.40;;;8.60;99.90;;;;;;5076082;28;20260;-69
2022/12/22 06:10:07;;;;;;;0.38;0.38;;;8.50;99.90;;;;;;5075894;28;20566;-70
2022/12/22 06:12:33;;;;;;;0.77;0.77;;;8.50;99.90;;;;;;5075779;28;20201;-69
2022/12/22 06:14:59;;;;;;;0.30;0.30;;;8.50;99.90;;;;;;5075670;28;20215;-68
2022/12/22 06:17:24;;;;;;;0.30;0.30;;;8.60;99.90;;;;;;5075943;28;20594;-71
2022/12/22 06:19:50;;;;;;;1.40;1.30;;;8.60;99.90;;;;;;5075611;28;20222;-70
2022/12/22 06:22:16;;;;;;;1.67;1.63;;;8.60;99.90;;;;;;5075662;28;20181;-72
2022/12/22 06:24:41;;;;;;;0.40;0.40;;;8.60;99.90;;;;;;5075934;28;20218;-70
2022/12/22 06:27:07;;;;;;;0.50;0.50;;;8.60;99.90;;;;;;5075570;28;20208;-70
2022/12/22 06:29:33;;;;;;;1.23;1.20;;;8.60;99.90;;;;;;5075442;28;20190;-69
2022/12/22 06:31:59;;;;;;;0.50;0.50;;;8.80;99.90;;;;;;5075609;28;20208;-72
2022/12/22 06:34:24;;;;;;;0.50;0.50;;;8.80;99.90;;;;;;5075357;28;20174;-71
2022/12/22 06:36:50;;;;;;;0.60;0.60;;;8.80;99.90;;;;;;5075318;28;20669;-72
2022/12/22 06:39:16;;;;;;;0.30;0.30;;;8.90;99.90;;;;;;5075342;28;20181;-71
2022/12/22 06:44:26;;;;;;;2.90;1.65;;;8.80;99.90;;;;;;5075607;28;20258;-71
2022/12/22 06:46:52;;;;;;;2.03;2.00;;;8.80;99.90;;;;;;5075418;28;20642;-71
2022/12/22 06:49:19;;;;;;;0.90;0.90;;;8.70;99.90;;;;;;5075199;28;20428;-70
2022/12/22 06:51:44;;;;;;;0.68;0.68;;;8.70;99.90;;;;;;5075044;28;20458;-71
2022/12/22 06:54:10;;;;;;;0.60;0.60;;;8.80;99.90;;;;;;5074858;28;20177;-69
2022/12/22 06:56:35;;;;;;;0.50;0.50;;;8.80;99.90;;;;;;5075131;28;20626;-69
2022/12/22 06:59:01;;;;;;;1.77;1.67;;;8.80;99.90;;;;;;5074983;28;20184;-67
2022/12/22 07:01:27;;;;;;;0.30;0.30;;;8.70;99.90;;;;;;5073697;28;20273;-73
2022/12/22 07:03:52;;;;;;;0.40;0.40;;;9.00;99.90;;;;;;5074195;28;20596;-71
2022/12/22 07:06:18;;;;;;;1.43;0.57;;;9.40;99.90;;;;;;5074818;28;20169;-71
2022/12/22 07:08:45;;;;;;;0.30;0.30;;;9.80;99.90;;;;;;5073763;28;20264;-71
2022/12/22 07:11:11;;;;;;;0.40;0.40;;;10.20;99.90;;;;;;5074970;28;20173;-74
2022/12/22 07:13:37;;;;;;;0.88;0.88;;;10.50;99.90;;;;;;5078343;28;20193;-69
2022/12/22 07:16:06;;;;;;;0.60;0.60;;;10.80;99.90;;;;;;5076124;28;20168;-73
2022/12/22 07:18:36;;;;;;;0.40;0.40;;;10.90;99.90;;;;;;5074604;28;20416;-71
2022/12/22 07:21:04;;;;;;;0.30;0.30;;;11.20;99.90;;;;;;5074878;28;20384;-73
2022/12/22 07:23:30;;;;;;;0.30;0.30;;;11.50;99.70;;;;;;5074840;28;20178;-77
2022/12/22 07:25:56;;;;;;;0.40;0.37;;;11.60;99.20;;;;;;5074515;28;20406;-72
2022/12/22 07:28:22;;;;;;;0.30;0.30;;;11.80;98.50;;;;;;5074950;28;20415;-72
2022/12/22 07:30:49;;;;;;;0.40;0.40;;;12.00;98.50;;;;;;5074989;28;20416;-76
2022/12/22 07:33:15;;;;;;;0.30;0.30;;;12.10;98.10;;;;;;5074782;28;20451;-72
2022/12/22 07:35:40;;;;;;;0.30;0.30;;;12.20;97.40;;;;;;5073871;28;20395;-71
2022/12/22 07:38:06;;;;;;;0.30;0.30;;;11.80;97.40;;;;;;5074697;28;20252;-73
2022/12/22 07:40:31;;;;;;;0.30;0.30;;;11.30;98.10;;;;;;5074606;28;20220;-75
2022/12/22 07:42:58;;;;;;;0.40;0.40;;;10.60;99.00;;;;;;5074545;28;20175;-72
2022/12/22 07:45:25;;;;;;;0.30;0.30;;;10.10;99.90;;;;;;5073938;28;20638;-70
2022/12/22 07:47:51;;;;;;;0.60;0.60;;;9.50;99.90;;;;;;5072742;28;20185;-71
2022/12/22 07:50:26;;;;;;;0.30;0.30;;;9.20;99.90;;;;;;5072120;28;20400;-70
2022/12/22 07:52:55;;;;;;;0.30;0.30;;;9.00;99.90;;;;;;5074036;28;20207;-68
2022/12/22 07:55:22;;;;;;;0.30;0.30;;;8.80;99.90;;;;;;5073563;28;20177;-70
2022/12/22 07:57:48;;;;;;;0.35;0.35;;;8.80;99.90;;;;;;5072626;28;20222;-68
2022/12/22 08:00:15;;;;;;;0.30;0.30;;;8.80;99.90;;;;;;5072293;28;20200;-70
2022/12/22 08:02:40;;;;;;;0.40;0.40;;;8.90;99.90;;;;;;5072369;28;20252;-70
2022/12/22 08:05:07;;;;;;;0.40;0.40;;;8.80;99.90;;;;;;5073949;28;20312;-71
2022/12/22 08:07:33;;;;;;;2.90;1.05;;;8.80;99.90;;;;;;5074158;28;20210;-72
2022/12/22 08:09:59;;;;;;;0.50;0.50;;;8.90;99.90;;;;;;5074203;28;20592;-71
2022/12/22 08:12:24;;;;;;;0.57;0.57;;;8.80;99.90;;;;;;5074368;28;20197;-70
2022/12/22 08:14:50;;;;;;;0.30;0.30;;;8.80;99.90;;;;;;5073559;28;20211;-73
2022/12/22 08:17:16;;;;;;;0.30;0.30;;;9.00;99.90;;;;;;5073837;28;20165;-70
2022/12/22 08:19:41;;;;;;;0.40;0.40;;;9.00;99.90;;;;;;5071559;28;20606;-69
2022/12/22 08:22:07;;;;;;;0.63;0.63;;;8.90;99.90;;;;;;5072433;28;20623;-71
2022/12/22 08:24:33;;;;;;;1.53;0.93;;;9.00;99.90;;;;;;5072293;28;20291;-71
2022/12/22 08:27:09;;;;;;;0.30;0.30;;;8.90;99.90;;;;;;5069832;28;20411;-71
2022/12/22 08:29:39;;;;;;;0.30;0.30;;;8.90;99.90;;;;;;5074103;28;20193;-69
2022/12/22 08:32:05;;;;;;;0.50;0.50;;;8.90;99.90;;;;;;5073487;28;20229;-70
2022/12/22 08:34:31;;;;;;;0.50;0.50;;;8.70;99.90;;;;;;5071762;28;20306;-71
2022/12/22 08:36:59;;;;;;;0.40;0.40;;;8.80;99.90;;;;;;5073530;28;20420;-71
2022/12/22 08:39:29;;;;;;;4.68;1.17;;;8.90;99.90;;;;;;5073739;28;20230;-70
2022/12/22 08:41:54;;;;;;;0.70;0.50;;;9.00;99.90;;;;;;5071619;28;20260;-69
2022/12/22 08:44:22;;;;;;;2.83;1.57;;;8.90;99.90;;;;;;5073038;28;20201;-69
2022/12/22 08:46:48;;;;;;;0.30;0.30;;;8.90;99.90;;;;;;5073653;28;20225;-73
2022/12/22 08:49:15;;;;;;;0.40;0.40;;;9.00;99.90;;;;;;5071364;28;20189;-72
2022/12/22 08:51:40;;;;;;;0.30;0.30;;;9.00;99.90;;;;;;5073543;28;20189;-69
2022/12/22 08:54:06;;;;;;;0.30;0.30;;;9.10;99.90;;;;;;5073741;28;20511;-69
2022/12/22 08:56:32;;;;;;;0.30;0.30;;;9.10;99.90;;;;;;5073190;28;20174;-68
2022/12/22 08:58:58;;;;;;;1.23;1.23;;;9.10;99.90;;;;;;5072958;28;20422;-71
2022/12/22 09:01:23;;;;;;;0.40;0.40;;;9.10;99.90;;;;;;5071494;28;20404;-71
2022/12/22 09:03:51;;;;;;;0.50;0.40;;;8.90;99.90;;;;;;5073272;28;20173;-70
2022/12/22 09:06:18;;;;;;;0.30;0.30;;;8.80;99.90;;;;;;5073064;28;20173;-71
2022/12/22 09:08:44;;;;;;;0.40;0.40;;;9.10;99.90;;;;;;5073037;28;20197;-71
2022/12/22 09:11:10;;;;;;;0.60;0.60;;;8.90;99.90;;;;;;5072997;28;20184;-69
2022/12/22 09:13:35;;;;;;;0.53;0.53;;;8.90;99.90;;;;;;5072712;28;20169;-70
2022/12/22 09:16:05;;;;;;;4.93;1.03;;;8.90;99.90;;;;;;5071891;28;20174;-71
2022/12/22 09:18:31;;;;;;;0.40;0.40;;;8.90;99.90;;;;;;5073492;28;20491;-70
2022/12/22 09:20:57;;;;;;;0.67;0.67;;;8.80;99.90;;;;;;5073036;28;20276;-71
2022/12/22 09:23:22;;;;;;;10.03;2.53;;;8.60;99.90;;;;;;5073544;28;20202;-70
2022/12/22 09:25:48;;;;;;;0.30;0.30;;;8.50;99.90;;;;;;5072853;28;20604;-69
2022/12/22 09:28:13;;;;;;;0.60;0.60;;;8.70;99.90;;;;;;5073101;28;20216;-69
2022/12/22 09:30:39;;;;;;;0.60;0.60;;;8.50;99.90;;;;;;5070952;28;20194;-71
2022/12/22 09:33:04;;;;;;;0.30;0.30;;;8.60;99.90;;;;;;5073285;28;20204;-67
2022/12/22 09:35:30;;;;;;;13.63;2.70;;;8.70;99.90;;;;;;5072646;28;20579;-68
2022/12/22 09:37:56;;;;;;;0.40;0.40;;;8.80;99.90;;;;;;5074380;28;20172;-70
2022/12/22 09:40:23;;;;;;;0.30;0.30;;;9.00;99.90;;;;;;5076575;28;20239;-71
2022/12/22 09:42:49;;;;;;;0.30;0.30;;;9.00;99.90;;;;;;5076660;28;20168;-69
2022/12/22 09:45:19;;;;;;;0.40;0.40;;;8.90;99.90;;;;;;5076759;28;20180;-70
2022/12/22 09:47:52;;;;;;;1.42;1.15;;;8.90;99.90;;;;;;5074971;28;20413;-70
2022/12/22 09:50:22;;;;;;;0.40;0.40;;;9.00;99.90;;;;;;5075755;28;20331;-69
2022/12/22 09:53:00;;;;;;;0.73;0.73;;;9.00;99.90;;;;;;5076249;28;20205;-70
2022/12/22 09:55:40;;;;;;;0.30;0.30;;;9.00;99.90;;;;;;5076378;28;20185;-71
2022/12/22 09:58:15;;;;;;;0.38;0.38;;;9.00;99.90;;;;;;5076893;28;20157;-70
2022/12/22 10:00:42;;;;;;;3.63;1.10;;;8.90;99.90;;;;;;5076331;28;20545;-69
2022/12/22 10:03:25;;;;;;;0.40;0.40;;;8.90;99.90;;;;;;5076059;28;20188;-71
2022/12/22 10:06:15;;;;;;;0.38;0.38;;;8.90;99.90;;;;;;5076192;28;20172;-69
2022/12/22 10:08:41;;;;;;;6.72;1.05;;;8.90;99.90;;;;;;5076544;28;20529;-68
2022/12/22 10:11:11;;;;;;;0.30;0.30;;;9.00;99.90;;;;;;5076592;28;20177;-69
2022/12/22 10:13:36;;;;;;;0.30;0.30;;;8.90;99.90;;;;;;5076543;28;20416;-70
2022/12/22 10:16:19;;;;;;;1.03;0.60;;;9.00;99.90;;;;;;5075921;28;20523;-70
2022/12/22 10:19:00;;;;;;;1.13;1.05;;;9.00;99.90;;;;;;5076290;28;20211;-71
2022/12/22 10:21:26;;;;;;;0.40;0.40;;;9.10;99.90;;;;;;5076302;28;20192;-69
2022/12/22 10:23:52;;;;;;;0.50;0.50;;;9.20;99.90;;;;;;5076410;28;20193;-71
2022/12/22 10:26:23;;;;;;;0.30;0.30;;;9.20;99.90;;;;;;5075656;28;20173;-71
2022/12/22 10:29:02;;;;;;;6.28;2.53;;;9.20;99.90;;;;;;5076128;28;20197;-71
2022/12/22 10:31:30;;;;;;;1.40;1.15;;;9.20;99.90;;;;;;5076089;28;20674;-69
2022/12/22 10:34:09;;;;;;;0.30;0.30;;;9.20;99.90;;;;;;5076163;28;20169;-69
2022/12/22 10:36:36;;;;;;;0.30;0.30;;;9.30;99.90;;;;;;5075561;28;20235;-70
2022/12/22 10:39:04;;;;;;;0.30;0.30;;;9.30;99.90;;;;;;5074774;28;20188;-69
2022/12/22 10:41:39;;;;;;;4.80;0.80;;;9.30;99.90;;;;;;5074267;28;20208;-69
2022/12/22 10:44:09;;;;;;;0.40;0.40;;;9.40;99.90;;;;;;5075460;28;20169;-69
2022/12/22 10:46:50;;;;;;;0.70;0.55;;;9.40;99.90;;;;;;5075458;28;20191;-68
2022/12/22 10:49:20;;;;;;;0.30;0.30;;;9.30;99.90;;;;;;5074271;28;20193;-70
2022/12/22 10:51:53;;;;;;;0.30;0.30;;;9.30;99.90;;;;;;5074329;28;20208;-68
2022/12/22 10:54:32;;;;;;;0.50;0.50;;;9.20;99.90;;;;;;5075125;28;20287;-69
2022/12/22 10:57:01;;;;;;;0.30;0.30;;;9.00;99.90;;;;;;5075228;28;20180;-68
2022/12/22 10:59:26;;;;;;;0.95;0.95;;;9.00;99.90;;;;;;5074917;28;20185;-70
2022/12/22 11:01:52;;;;;;;0.30;0.30;;;9.00;99.90;;;;;;5075153;28;20181;-68
2022/12/22 11:04:22;;;;;;;0.30;0.30;;;9.00;99.90;;;;;;5074929;28;20173;-69
2022/12/22 11:06:48;;;;;;;0.75;0.75;;;9.10;99.90;;;;;;5074956;28;20302;-70
2022/12/22 11:09:14;;;;;;;0.40;0.40;;;9.20;99.90;;;;;;5074826;28;20208;-70
2022/12/22 11:11:59;;;;;;;1.07;0.70;;;9.20;99.90;;;;;;5074628;28;20189;-70
2022/12/22 11:14:32;;;;;;;0.40;0.40;;;9.10;99.90;;;;;;5074880;28;20169;-68
2022/12/22 11:17:11;;;;;;;0.30;0.30;;;9.10;99.90;;;;;;5074655;28;20173;-71
2022/12/22 11:19:42;;;;;;;9.77;0.60;;;9.20;99.90;;;;;;5074683;28;20269;-70
2022/12/22 11:22:40;;;;;;;0.77;0.77;;;9.20;99.90;;;;;;5073242;28;20540;-69
2022/12/22 11:25:15;;;;;;;0.40;0.40;;;9.30;99.90;;;;;;5074412;28;20205;-68
2022/12/22 11:28:06;;;;;;;0.68;0.68;;;9.30;99.90;;;;;;5074466;28;20169;-70
2022/12/22 11:31:03;;;;;;;0.30;0.30;;;9.40;99.90;;;;;;5074479;28;20207;-68
2022/12/22 11:33:34;;;;;;;0.30;0.30;;;9.30;99.90;;;;;;5073288;28;20213;-69
2022/12/22 11:36:03;;;;;;;0.30;0.30;;;9.30;99.90;;;;;;5074012;28;20548;-69
2022/12/22 11:38:45;;;;;;;0.65;0.65;;;9.40;99.90;;;;;;5072524;28;20634;-72
2022/12/22 11:41:13;;;;;;;2.15;2.05;;;9.40;99.90;;;;;;5073765;28;20169;-69
2022/12/22 11:43:42;;;;;;;2.17;1.90;;;9.50;99.90;;;;;;5071677;28;20392;-69
2022/12/22 11:46:40;;;;;;;1.33;1.17;;;9.50;99.90;;;;;;5073448;28;20177;-67
2022/12/22 11:49:20;;;;;;;2.35;1.70;;;9.40;99.90;;;;;;5072680;28;20557;-68
2022/12/22 11:51:59;;;;;;;1.30;1.02;;;9.50;99.90;;;;;;5072400;28;20224;-68
2022/12/22 11:54:36;;;;;;;0.85;0.85;;;9.50;99.90;;;;;;5073819;28;20161;-68
2022/12/22 11:57:20;;;;;;;1.98;0.75;;;9.70;99.90;;;;;;5072309;28;20157;-68
2022/12/22 12:00:04;;;;;;;0.30;0.30;;;9.80;99.90;;;;;;5073096;28;20205;-71
2022/12/22 12:02:48;;;;;;;0.80;0.80;;;10.00;99.90;;;;;;5073933;28;20184;-69
2022/12/22 12:05:22;;;;;;;0.30;0.30;;;10.00;99.90;;;;;;5073986;28;20539;-70
2022/12/22 12:08:16;;;;;;;1.50;0.80;;;10.20;99.90;;;;;;5074435;28;20164;-68
2022/12/22 12:10:47;;;;;;;0.30;0.30;;;10.20;99.90;;;;;;5073905;28;20205;-69
2022/12/22 12:13:48;;;;;;;0.30;0.30;;;10.10;99.90;;;;;;5074148;28;20201;-69
2022/12/22 12:16:37;;;;;;;2.75;0.93;;;9.90;99.90;;;;;;5074096;28;20615;-70
2022/12/22 12:19:41;;;;;;;0.30;0.30;;;9.70;99.90;;;;;;5072726;28;20296;-70
2022/12/22 12:22:25;;;;;;;0.40;0.40;;;9.50;99.90;;;;;;5074223;28;20566;-69
2022/12/22 12:24:54;;;;;;;0.70;0.70;;;9.60;99.90;;;;;;5073721;28;20166;-68
2022/12/22 12:27:25;;;;;;;0.30;0.30;;;9.60;99.90;;;;;;5073719;28;20173;-68
2022/12/22 12:30:05;;;;;;;1.42;0.73;;;9.70;99.90;;;;;;5073183;28;20192;-69
2022/12/22 12:32:41;;;;;;;0.43;0.43;;;9.60;99.90;;;;;;5072290;28;20196;-69
2022/12/22 12:35:36;;;;;;;3.58;0.85;;;9.60;99.90;;;;;;5073406;28;20169;-70
2022/12/22 12:38:12;;;;;;;0.93;0.93;;;9.70;99.90;;;;;;5071614;28;20180;-69
2022/12/22 12:40:52;;;;;;;0.30;0.30;;;9.70;99.90;;;;;;5073404;28;20646;-69
2022/12/22 12:43:18;;;;;;;0.50;0.50;;;9.80;99.90;;;;;;5072693;28;20172;-70
2022/12/22 12:45:48;;;;;;;0.60;0.60;;;9.80;99.90;;;;;;5072129;28;20176;-69
2022/12/22 12:48:20;;;;;;;0.30;0.30;;;9.70;99.90;;;;;;5073528;28;20252;-70
2022/12/22 12:50:50;;;;;;;0.30;0.30;;;9.70;99.90;;;;;;5073179;28;20224;-69
2022/12/22 12:53:20;;;;;;;1.35;1.35;;;9.70;99.90;;;;;;5073323;28;20255;-69
2022/12/22 12:55:52;;;;;;;1.60;1.27;;;9.70;99.90;;;;;;5073239;28;20526;-68
2022/12/22 12:58:38;;;;;;;1.08;1.08;;;9.60;99.90;;;;;;5073449;28;20161;-69
2022/12/22 13:01:23;;;;;;;0.30;0.30;;;9.60;99.90;;;;;;5073221;28;20559;-69
2022/12/22 13:03:48;;;;;;;0.30;0.30;;;9.70;99.90;;;;;;5073484;28;20197;-69
2022/12/22 13:06:45;;;;;;;0.30;0.30;;;9.80;99.90;;;;;;5073174;28;20197;-71
2022/12/22 13:09:20;;;;;;;0.93;0.90;;;9.90;99.90;;;;;;5073073;28;20564;-67
2022/12/22 13:11:47;;;;;;;0.40;0.40;;;10.10;99.90;;;;;;5073219;28;20237;-71
2022/12/22 13:14:50;;;;;;;0.30;0.30;;;10.10;99.90;;;;;;5074557;28;20162;-69
2022/12/22 13:17:36;;;;;;;6.82;1.70;;;10.20;99.90;;;;;;5077211;28;20177;-69
2022/12/22 13:20:03;;;;;;;0.30;0.30;;;10.30;99.90;;;;;;5076208;28;20214;-69
2022/12/22 13:22:29;;;;;;;0.50;0.50;;;10.30;99.90;;;;;;5076749;28;20223;-69
2022/12/22 13:24:55;;;;;;;1.47;1.47;;;10.20;99.90;;;;;;5076801;28;20661;-68
2022/12/22 13:27:21;;;;;;;0.77;0.60;;;10.00;99.90;;;;;;5076828;28;20412;-70
2022/12/22 13:29:48;;;;;;;0.50;0.50;;;10.00;99.90;;;;;;5075261;28;20222;-69
2022/12/22 13:32:34;;;;;;;0.30;0.30;;;10.00;99.90;;;;;;5076449;28;20278;-70
2022/12/22 13:35:19;;;;;;;3.05;1.55;;;10.00;99.90;;;;;;5076551;28;20299;-70
2022/12/22 13:37:46;;;;;;;6.28;0.82;;;10.00;99.90;;;;;;5076546;28;20185;-71
2022/12/22 13:40:23;;;;;;;2.45;2.25;;;10.00;99.90;;;;;;5074549;28;20213;-71
2022/12/22 13:42:52;;;;;;;0.30;0.30;;;10.00;99.90;;;;;;5076992;28;20214;-72
2022/12/22 13:45:39;;;;;;;0.50;0.50;;;10.00;99.90;;;;;;5075608;28;20234;-71
2022/12/22 13:48:13;;;;;;;0.30;0.30;;;9.90;99.90;;;;;;5075321;28;20177;-69
2022/12/22 13:50:43;;;;;;;1.85;0.93;;;9.70;99.90;;;;;;5076109;28;20189;-69
2022/12/22 13:53:14;;;;;;;0.43;0.43;;;9.70;99.90;;;;;;5075975;28;20201;-70
2022/12/22 13:55:46;;;;;;;0.30;0.30;;;9.60;99.90;;;;;;5074220;28;20248;-69
2022/12/22 13:58:26;;;;;;;5.97;1.55;;;9.40;99.90;;;;;;5076440;28;20618;-70
2022/12/22 14:01:11;;;;;;;3.75;2.17;;;9.40;99.90;;;;;;5076120;28;20185;-70
2022/12/22 14:03:43;;;;;;;0.40;0.40;;;9.40;99.90;;;;;;5076313;28;20177;-72
2022/12/22 14:06:24;;;;;;;0.30;0.30;;;9.40;99.90;;;;;;5076119;28;20571;-70
2022/12/22 14:08:49;;;;;;;0.73;0.73;;;9.40;99.90;;;;;;5075953;28;20180;-69
2022/12/22 14:11:15;;;;;;;0.87;0.50;;;9.40;99.90;;;;;;5075898;28;20200;-71
2022/12/22 14:13:42;;;;;;;0.40;0.40;;;9.40;99.90;;;;;;5075494;28;20193;-71
2022/12/22 14:16:12;;;;;;;3.30;1.73;;;9.50;99.90;;;;;;5073907;28;20408;-70
2022/12/22 14:18:39;;;;;;;0.30;0.30;;;9.50;99.90;;;;;;5074697;28;20204;-71
2022/12/22 14:21:06;;;;;;;0.47;0.47;;;9.50;99.90;;;;;;5074358;28;20205;-72
2022/12/22 14:23:38;;;;;;;1.38;0.93;;;9.40;99.90;;;;;;5074535;28;20166;-70
2022/12/22 14:26:06;;;;;;;2.40;1.02;;;9.50;99.90;;;;;;5075666;28;20166;-71
2022/12/22 14:28:42;;;;;;;6.97;1.08;;;9.60;99.90;;;;;;5075747;28;20626;-71
2022/12/22 14:31:11;;;;;;;0.40;0.40;;;9.60;99.90;;;;;;5075721;28;20180;-71
2022/12/22 14:33:37;;;;;;;0.98;0.98;;;9.70;99.90;;;;;;5073685;28;20205;-71
2022/12/22 14:36:10;;;;;;;0.30;0.30;;;9.70;99.90;;;;;;5075281;28;20193;-69
2022/12/22 14:38:42;;;;;;;0.38;0.38;;;9.70;99.90;;;;;;5075691;28;20520;-72
2022/12/22 14:41:40;;;;;;;0.30;0.30;;;9.70;99.90;;;;;;5075773;28;20192;-68
2022/12/22 14:44:03;;;;;;;0.75;0.75;;;9.80;99.90;;;;;;5075752;28;20252;-70
2022/12/22 14:46:30;;;;;;;0.40;0.40;;;9.80;99.90;;;;;;5075562;28;20166;-72
2022/12/22 14:48:58;;;;;;;0.30;0.30;;;9.70;99.90;;;;;;5075267;28;20261;-70
2022/12/22 14:51:24;;;;;;;1.15;1.05;;;9.50;99.90;;;;;;5075280;28;20180;-71
2022/12/22 14:53:54;;;;;;;0.60;0.43;;;9.60;99.90;;;;;;5075274;28;20669;-69
2022/12/22 14:56:21;;;;;;;6.00;1.67;;;9.50;99.90;;;;;;5075100;28;20170;-70
2022/12/22 14:58:48;;;;;;;0.45;0.45;;;9.50;99.90;;;;;;5075039;28;20257;-70
2022/12/22 15:01:26;;;;;;;0.55;0.55;;;9.30;99.90;;;;;;5073199;28;20170;-68
2022/12/22 15:04:03;;;;;;;1.40;0.70;;;9.40;99.90;;;;;;5075004;28;20529;-69
2022/12/22 15:06:39;;;;;;;0.50;0.50;;;9.30;99.90;;;;;;5075038;28;20165;-70
2022/12/22 15:09:10;;;;;;;0.85;0.85;;;9.30;99.90;;;;;;5074974;28;20189;-71
2022/12/22 15:12:02;;;;;;;0.40;0.40;;;9.30;99.90;;;;;;5074958;28;20223;-70
2022/12/22 15:14:30;;;;;;;0.38;0.38;;;9.40;99.90;;;;;;5074848;28;20243;-70
2022/12/22 15:16:58;;;;;;;0.85;0.85;;;9.50;99.90;;;;;;5074985;28;20157;-70
2022/12/22 15:19:28;;;;;;;0.63;0.40;;;9.50;99.90;;;;;;5074769;28;20224;-71
2022/12/22 15:21:54;;;;;;;0.75;0.73;;;9.50;99.90;;;;;;5074866;28;20165;-69
2022/12/22 15:24:20;;;;;;;0.60;0.60;;;9.50;99.90;;;;;;5074407;28;20170;-69
2022/12/22 15:26:46;;;;;;;0.30;0.30;;;9.50;99.90;;;;;;5074532;28;20179;-70
2022/12/22 15:29:12;;;;;;;0.30;0.30;;;9.50;99.90;;;;;;5074529;28;20258;-68
2022/12/22 15:31:39;;;;;;;0.82;0.82;;;9.50;99.90;;;;;;5073092;28;20212;-67
2022/12/22 15:34:18;;;;;;;0.38;0.38;;;9.50;99.90;;;;;;5074375;28;20223;-71
2022/12/22 15:36:43;;;;;;;0.40;0.40;;;9.50;99.90;;;;;;5073676;28;20560;-69
2022/12/22 15:39:13;;;;;;;0.60;0.60;;;9.50;99.90;;;;;;5074219;28;20200;-70
2022/12/22 15:41:39;;;;;;;0.65;0.65;;;9.50;99.90;;;;;;5072357;28;20248;-71
2022/12/22 15:44:05;;;;;;;0.40;0.40;;;9.50;99.90;;;;;;5074475;28;20535;-68
2022/12/22 15:46:31;;;;;;;0.40;0.40;;;9.40;99.90;;;;;;5074552;28;20176;-71
2022/12/22 15:48:57;;;;;;;0.60;0.60;;;9.20;99.90;;;;;;5074086;28;20177;-70
2022/12/22 15:51:26;;;;;;;1.07;1.07;;;9.30;99.90;;;;;;5074180;28;20188;-69
2022/12/22 15:53:53;;;;;;;1.20;1.10;;;9.30;99.90;;;;;;5074286;28;20199;-69
2022/12/22 15:56:22;;;;;;;0.60;0.60;;;9.30;99.90;;;;;;5074230;28;20174;-71
2022/12/22 15:58:48;;;;;;;0.73;0.60;;;9.30;99.90;;;;;;5074369;28;20166;-70
2022/12/22 16:01:14;;;;;;;2.83;2.63;;;9.40;99.90;;;;;;5074581;28;20303;-72
2022/12/22 16:03:39;;;;;;;0.30;0.30;;;9.40;99.90;;;;;;5074114;28;20205;-74
2022/12/22 16:06:07;;;;;;;0.97;0.97;;;9.40;99.90;;;;;;5073847;28;20170;-70
2022/12/22 16:08:37;;;;;;;0.80;0.80;;;9.40;99.90;;;;;;5074138;28;20165;-73
2022/12/22 16:11:04;;;;;;;0.30;0.30;;;9.30;99.90;;;;;;5074183;28;20242;-72
2022/12/22 16:13:30;;;;;;;1.40;0.85;;;9.30;99.90;;;;;;5074085;28;20326;-72
2022/12/22 16:15:57;;;;;;;0.30;0.30;;;9.30;99.90;;;;;;5073577;28;20635;-71
2022/12/22 16:18:23;;;;;;;0.30;0.30;;;9.40;99.90;;;;;;5073846;28;20396;-73
2022/12/22 16:20:49;;;;;;;5.23;1.17;;;9.20;99.90;;;;;;5071785;28;20532;-73
2022/12/22 16:23:21;;;;;;;0.50;0.50;;;9.20;99.90;;;;;;5073706;28;20885;-71
2022/12/22 16:25:49;;;;;;;0.40;0.40;;;9.30;99.90;;;;;;5073310;28;20185;-73
2022/12/22 16:28:20;;;;;;;0.30;0.30;;;9.30;99.90;;;;;;5073592;28;20165;-71
2022/12/22 16:30:46;;;;;;;0.57;0.57;;;9.40;99.90;;;;;;5073428;28;20201;-72
2022/12/22 16:33:13;;;;;;;4.60;1.05;;;9.40;99.90;;;;;;5073839;28;20223;-74
2022/12/22 16:35:39;;;;;;;1.00;1.00;;;9.40;99.90;;;;;;5073227;28;20166;-73
2022/12/22 16:38:05;;;;;;;1.45;1.35;;;9.30;99.90;;;;;;5073677;28;20177;-73
2022/12/22 16:40:33;;;;;;;1.40;0.77;;;9.30;99.90;;;;;;5074963;28;20201;-70
2022/12/22 16:42:58;;;;;;;0.50;0.50;;;9.30;99.90;;;;;;5073481;28;20537;-71
2022/12/22 16:45:28;;;;;;;0.30;0.30;;;9.30;99.90;;;;;;5073015;28;20174;-70